sensor_id;sensor_type;location;lat;lon;timestamp;P1;durP1;ratioP1;P2;durP2;ratioP2
56425;SDS011;42330;43.620;3.856;2022-08-04T00:02:22;7.72;;;1.98;;
56425;SDS011;42330;43.620;3.856;2022-08-04T00:04:55;5.88;;;2.20;;
56425;SDS011;42330;43.620;3.856;2022-08-04T00:10:17;3.55;;;1.88;;
56425;SDS011;42330;43.620;3.856;2022-08-04T00:12:46;7.55;;;1.88;;
56425;SDS011;42330;43.620;3.856;2022-08-04T00:15:14;5.57;;;2.17;;
56425;SDS011;42330;43.620;3.856;2022-08-04T00:17:44;7.35;;;1.73;;
56425;SDS011;42330;43.620;3.856;2022-08-04T00:20:16;4.93;;;1.73;;
56425;SDS011;42330;43.620;3.856;2022-08-04T00:22:44;6.05;;;1.83;;
56425;SDS011;42330;43.620;3.856;2022-08-04T00:25:10;4.05;;;1.80;;
56425;SDS011;42330;43.620;3.856;2022-08-04T00:27:36;4.55;;;2.00;;
56425;SDS011;42330;43.620;3.856;2022-08-04T00:30:03;3.92;;;1.88;;
56425;SDS011;42330;43.620;3.856;2022-08-04T00:32:30;4.57;;;2.05;;
56425;SDS011;42330;43.620;3.856;2022-08-04T00:34:56;5.07;;;2.10;;
56425;SDS011;42330;43.620;3.856;2022-08-04T00:37:23;4.35;;;1.98;;
56425;SDS011;42330;43.620;3.856;2022-08-04T00:39:50;7.88;;;1.70;;
56425;SDS011;42330;43.620;3.856;2022-08-04T00:42:33;4.45;;;1.85;;
56425;SDS011;42330;43.620;3.856;2022-08-04T00:45:10;5.13;;;1.80;;
56425;SDS011;42330;43.620;3.856;2022-08-04T00:55:50;3.58;;;1.70;;
56425;SDS011;42330;43.620;3.856;2022-08-04T00:58:57;3.85;;;1.90;;
56425;SDS011;42330;43.620;3.856;2022-08-04T01:04:15;4.70;;;2.03;;
56425;SDS011;42330;43.620;3.856;2022-08-04T01:15:30;4.85;;;2.15;;
56425;SDS011;42330;43.620;3.856;2022-08-04T01:18:06;5.75;;;2.10;;
56425;SDS011;42330;43.620;3.856;2022-08-04T01:26:37;5.15;;;2.30;;
56425;SDS011;42330;43.620;3.856;2022-08-04T01:29:10;4.57;;;2.22;;
56425;SDS011;42330;43.620;3.856;2022-08-04T01:34:29;4.82;;;2.22;;
56425;SDS011;42330;43.620;3.856;2022-08-04T01:37:03;6.07;;;2.67;;
56425;SDS011;42330;43.620;3.856;2022-08-04T01:39:50;5.88;;;2.85;;
56425;SDS011;42330;43.620;3.856;2022-08-04T01:42:36;6.63;;;2.67;;
56425;SDS011;42330;43.620;3.856;2022-08-04T01:45:06;6.10;;;2.67;;
56425;SDS011;42330;43.620;3.856;2022-08-04T01:47:33;9.00;;;3.00;;
56425;SDS011;42330;43.620;3.856;2022-08-04T01:50:03;7.30;;;2.65;;
56425;SDS011;42330;43.620;3.856;2022-08-04T01:52:32;4.15;;;2.38;;
56425;SDS011;42330;43.620;3.856;2022-08-04T01:55:00;6.25;;;2.53;;
56425;SDS011;42330;43.620;3.856;2022-08-04T01:57:29;5.38;;;2.60;;
56425;SDS011;42330;43.620;3.856;2022-08-04T01:59:58;3.95;;;2.38;;
56425;SDS011;42330;43.620;3.856;2022-08-04T02:02:24;6.60;;;2.63;;
56425;SDS011;42330;43.620;3.856;2022-08-04T02:04:50;5.68;;;3.00;;
56425;SDS011;42330;43.620;3.856;2022-08-04T02:09:57;5.90;;;3.30;;
56425;SDS011;42330;43.620;3.856;2022-08-04T02:12:42;5.83;;;3.17;;
56425;SDS011;42330;43.620;3.856;2022-08-04T02:15:29;7.25;;;3.22;;
56425;SDS011;42330;43.620;3.856;2022-08-04T02:20:32;7.55;;;3.40;;
56425;SDS011;42330;43.620;3.856;2022-08-04T02:23:15;6.50;;;3.00;;
56425;SDS011;42330;43.620;3.856;2022-08-04T02:25:55;6.20;;;3.45;;
56425;SDS011;42330;43.620;3.856;2022-08-04T02:33:23;6.63;;;3.05;;
56425;SDS011;42330;43.620;3.856;2022-08-04T02:35:56;9.10;;;3.20;;
56425;SDS011;42330;43.620;3.856;2022-08-04T02:38:34;5.72;;;3.35;;
56425;SDS011;42330;43.620;3.856;2022-08-04T02:41:03;7.10;;;3.50;;
56425;SDS011;42330;43.620;3.856;2022-08-04T02:43:31;5.95;;;3.92;;
56425;SDS011;42330;43.620;3.856;2022-08-04T02:45:59;7.43;;;4.15;;
56425;SDS011;42330;43.620;3.856;2022-08-04T02:48:27;8.55;;;4.78;;
56425;SDS011;42330;43.620;3.856;2022-08-04T02:50:56;9.00;;;4.55;;
56425;SDS011;42330;43.620;3.856;2022-08-04T02:53:23;9.18;;;4.40;;
56425;SDS011;42330;43.620;3.856;2022-08-04T02:55:50;9.88;;;4.55;;
56425;SDS011;42330;43.620;3.856;2022-08-04T02:58:19;6.68;;;4.10;;
56425;SDS011;42330;43.620;3.856;2022-08-04T03:00:44;6.88;;;4.20;;
56425;SDS011;42330;43.620;3.856;2022-08-04T03:26:25;8.32;;;3.90;;
56425;SDS011;42330;43.620;3.856;2022-08-04T03:37:23;9.80;;;3.92;;
56425;SDS011;42330;43.620;3.856;2022-08-04T03:59:11;4.72;;;2.33;;
56425;SDS011;42330;43.620;3.856;2022-08-04T04:26:52;4.60;;;2.30;;
56425;SDS011;42330;43.620;3.856;2022-08-04T04:34:41;6.47;;;2.95;;
56425;SDS011;42330;43.620;3.856;2022-08-04T04:37:31;5.03;;;2.90;;
56425;SDS011;42330;43.620;3.856;2022-08-04T04:48:57;5.20;;;2.80;;
56425;SDS011;42330;43.620;3.856;2022-08-04T04:51:36;4.65;;;2.65;;
56425;SDS011;42330;43.620;3.856;2022-08-04T04:54:23;7.93;;;3.47;;
56425;SDS011;42330;43.620;3.856;2022-08-04T04:59:27;7.55;;;3.28;;
56425;SDS011;42330;43.620;3.856;2022-08-04T05:07:56;7.50;;;3.20;;
56425;SDS011;42330;43.620;3.856;2022-08-04T05:13:48;8.13;;;4.07;;
56425;SDS011;42330;43.620;3.856;2022-08-04T05:24:16;9.27;;;3.75;;
56425;SDS011;42330;43.620;3.856;2022-08-04T05:26:46;6.15;;;3.28;;
56425;SDS011;42330;43.620;3.856;2022-08-04T05:29:30;7.55;;;3.83;;
56425;SDS011;42330;43.620;3.856;2022-08-04T05:32:00;7.22;;;3.70;;
56425;SDS011;42330;43.620;3.856;2022-08-04T05:34:33;11.05;;;4.00;;
56425;SDS011;42330;43.620;3.856;2022-08-04T05:39:56;4.82;;;3.40;;
56425;SDS011;42330;43.620;3.856;2022-08-04T05:42:22;9.00;;;3.88;;
56425;SDS011;42330;43.620;3.856;2022-08-04T05:44:49;6.55;;;3.58;;
56425;SDS011;42330;43.620;3.856;2022-08-04T05:47:16;6.43;;;3.40;;
56425;SDS011;42330;43.620;3.856;2022-08-04T05:49:42;10.85;;;3.80;;
56425;SDS011;42330;43.620;3.856;2022-08-04T05:52:09;7.38;;;3.70;;
56425;SDS011;42330;43.620;3.856;2022-08-04T05:54:36;8.45;;;3.65;;
56425;SDS011;42330;43.620;3.856;2022-08-04T05:57:06;4.43;;;3.20;;
56425;SDS011;42330;43.620;3.856;2022-08-04T05:59:33;4.78;;;3.42;;
56425;SDS011;42330;43.620;3.856;2022-08-04T06:02:02;9.13;;;3.40;;
56425;SDS011;42330;43.620;3.856;2022-08-04T06:04:39;9.05;;;3.60;;
56425;SDS011;42330;43.620;3.856;2022-08-04T06:07:06;7.70;;;3.20;;
56425;SDS011;42330;43.620;3.856;2022-08-04T06:09:33;6.30;;;3.55;;
56425;SDS011;42330;43.620;3.856;2022-08-04T06:11:59;5.07;;;3.13;;
56425;SDS011;42330;43.620;3.856;2022-08-04T06:14:26;7.20;;;3.50;;
56425;SDS011;42330;43.620;3.856;2022-08-04T06:17:00;9.35;;;3.35;;
56425;SDS011;42330;43.620;3.856;2022-08-04T06:19:30;7.82;;;3.30;;
56425;SDS011;42330;43.620;3.856;2022-08-04T06:21:58;6.78;;;3.72;;
56425;SDS011;42330;43.620;3.856;2022-08-04T06:24:28;6.90;;;3.42;;
56425;SDS011;42330;43.620;3.856;2022-08-04T06:26:56;6.30;;;3.03;;
56425;SDS011;42330;43.620;3.856;2022-08-04T06:29:22;7.10;;;3.33;;
56425;SDS011;42330;43.620;3.856;2022-08-04T06:32:08;4.78;;;3.30;;
56425;SDS011;42330;43.620;3.856;2022-08-04T06:34:38;8.63;;;3.30;;
56425;SDS011;42330;43.620;3.856;2022-08-04T06:37:05;7.93;;;3.70;;
56425;SDS011;42330;43.620;3.856;2022-08-04T06:39:32;4.38;;;3.00;;
56425;SDS011;42330;43.620;3.856;2022-08-04T06:42:00;6.65;;;3.38;;
56425;SDS011;42330;43.620;3.856;2022-08-04T06:44:27;5.10;;;2.97;;
56425;SDS011;42330;43.620;3.856;2022-08-04T06:46:54;6.30;;;3.22;;
56425;SDS011;42330;43.620;3.856;2022-08-04T06:49:20;4.93;;;2.95;;
56425;SDS011;42330;43.620;3.856;2022-08-04T06:51:48;5.20;;;2.90;;
56425;SDS011;42330;43.620;3.856;2022-08-04T06:54:15;6.80;;;2.80;;
56425;SDS011;42330;43.620;3.856;2022-08-04T06:56:42;6.85;;;2.95;;
56425;SDS011;42330;43.620;3.856;2022-08-04T06:59:09;4.97;;;3.03;;
56425;SDS011;42330;43.620;3.856;2022-08-04T07:01:36;6.85;;;2.72;;
56425;SDS011;42330;43.620;3.856;2022-08-04T07:04:03;6.20;;;2.78;;
56425;SDS011;42330;43.620;3.856;2022-08-04T07:06:30;8.82;;;3.03;;
56425;SDS011;42330;43.620;3.856;2022-08-04T07:08:56;9.43;;;2.85;;
56425;SDS011;42330;43.620;3.856;2022-08-04T07:11:23;5.75;;;2.78;;
56425;SDS011;42330;43.620;3.856;2022-08-04T07:13:50;3.88;;;2.58;;
56425;SDS011;42330;43.620;3.856;2022-08-04T07:16:17;4.43;;;2.70;;
56425;SDS011;42330;43.620;3.856;2022-08-04T07:18:44;6.13;;;3.03;;
56425;SDS011;42330;43.620;3.856;2022-08-04T07:21:10;7.53;;;3.20;;
56425;SDS011;42330;43.620;3.856;2022-08-04T07:23:44;3.78;;;2.55;;
56425;SDS011;42330;43.620;3.856;2022-08-04T07:26:10;4.43;;;2.38;;
56425;SDS011;42330;43.620;3.856;2022-08-04T07:28:36;5.07;;;2.47;;
56425;SDS011;42330;43.620;3.856;2022-08-04T07:31:03;6.55;;;3.00;;
56425;SDS011;42330;43.620;3.856;2022-08-04T07:33:30;3.83;;;2.67;;
56425;SDS011;42330;43.620;3.856;2022-08-04T07:35:56;7.43;;;2.53;;
56425;SDS011;42330;43.620;3.856;2022-08-04T07:38:22;5.18;;;2.70;;
56425;SDS011;42330;43.620;3.856;2022-08-04T07:40:47;3.95;;;2.42;;
56425;SDS011;42330;43.620;3.856;2022-08-04T07:43:14;6.80;;;2.45;;
56425;SDS011;42330;43.620;3.856;2022-08-04T07:45:40;8.02;;;2.65;;
56425;SDS011;42330;43.620;3.856;2022-08-04T07:48:08;5.95;;;2.70;;
56425;SDS011;42330;43.620;3.856;2022-08-04T07:50:34;7.88;;;2.40;;
56425;SDS011;42330;43.620;3.856;2022-08-04T07:53:02;6.50;;;2.53;;
56425;SDS011;42330;43.620;3.856;2022-08-04T07:55:28;4.22;;;2.00;;
56425;SDS011;42330;43.620;3.856;2022-08-04T07:57:55;5.28;;;2.00;;
56425;SDS011;42330;43.620;3.856;2022-08-04T08:00:21;8.15;;;2.15;;
56425;SDS011;42330;43.620;3.856;2022-08-04T08:02:47;7.30;;;2.30;;
56425;SDS011;42330;43.620;3.856;2022-08-04T08:05:15;8.15;;;2.25;;
56425;SDS011;42330;43.620;3.856;2022-08-04T08:07:49;4.95;;;2.30;;
56425;SDS011;42330;43.620;3.856;2022-08-04T08:10:15;4.95;;;2.38;;
56425;SDS011;42330;43.620;3.856;2022-08-04T08:12:41;4.00;;;1.98;;
56425;SDS011;42330;43.620;3.856;2022-08-04T08:15:08;5.43;;;1.92;;
56425;SDS011;42330;43.620;3.856;2022-08-04T08:17:36;6.00;;;2.10;;
56425;SDS011;42330;43.620;3.856;2022-08-04T08:20:03;12.15;;;2.60;;
56425;SDS011;42330;43.620;3.856;2022-08-04T08:22:31;10.90;;;2.65;;
56425;SDS011;42330;43.620;3.856;2022-08-04T08:24:57;8.18;;;2.25;;
56425;SDS011;42330;43.620;3.856;2022-08-04T08:27:23;10.00;;;2.22;;
56425;SDS011;42330;43.620;3.856;2022-08-04T08:29:49;5.78;;;2.10;;
56425;SDS011;42330;43.620;3.856;2022-08-04T08:32:16;11.35;;;2.30;;
56425;SDS011;42330;43.620;3.856;2022-08-04T08:34:42;6.93;;;2.25;;
56425;SDS011;42330;43.620;3.856;2022-08-04T08:59:25;5.32;;;1.88;;
56425;SDS011;42330;43.620;3.856;2022-08-04T09:17:58;4.00;;;1.85;;
56425;SDS011;42330;43.620;3.856;2022-08-04T09:20:53;5.97;;;1.60;;
56425;SDS011;42330;43.620;3.856;2022-08-04T09:31:45;8.18;;;2.10;;
56425;SDS011;42330;43.620;3.856;2022-08-04T09:37:26;6.38;;;1.75;;
56425;SDS011;42330;43.620;3.856;2022-08-04T09:46:04;8.77;;;2.35;;
56425;SDS011;42330;43.620;3.856;2022-08-04T09:48:09;7.03;;;2.00;;
56425;SDS011;42330;43.620;3.856;2022-08-04T09:50:40;8.35;;;2.08;;
56425;SDS011;42330;43.620;3.856;2022-08-04T10:02:05;11.38;;;2.63;;
56425;SDS011;42330;43.620;3.856;2022-08-04T10:04:34;9.63;;;2.42;;
56425;SDS011;42330;43.620;3.856;2022-08-04T10:07:08;4.20;;;2.75;;
56425;SDS011;42330;43.620;3.856;2022-08-04T10:15:19;7.55;;;2.30;;
56425;SDS011;42330;43.620;3.856;2022-08-04T10:26:46;4.35;;;2.00;;
56425;SDS011;42330;43.620;3.856;2022-08-04T10:29:36;4.25;;;2.00;;
56425;SDS011;42330;43.620;3.856;2022-08-04T10:38:02;3.67;;;1.40;;
56425;SDS011;42330;43.620;3.856;2022-08-04T10:51:34;6.38;;;1.60;;
56425;SDS011;42330;43.620;3.856;2022-08-04T10:54:24;4.55;;;1.90;;
56425;SDS011;42330;43.620;3.856;2022-08-04T10:56:52;4.78;;;1.60;;
56425;SDS011;42330;43.620;3.856;2022-08-04T10:59:34;3.78;;;1.52;;
56425;SDS011;42330;43.620;3.856;2022-08-04T11:07:40;2.92;;;1.20;;
56425;SDS011;42330;43.620;3.856;2022-08-04T11:10:09;6.25;;;1.33;;
56425;SDS011;42330;43.620;3.856;2022-08-04T11:12:37;4.05;;;1.40;;
56425;SDS011;42330;43.620;3.856;2022-08-04T11:15:17;5.00;;;1.30;;
56425;SDS011;42330;43.620;3.856;2022-08-04T11:18:08;9.48;;;1.40;;
56425;SDS011;42330;43.620;3.856;2022-08-04T11:20:42;2.47;;;1.10;;
56425;SDS011;42330;43.620;3.856;2022-08-04T11:23:32;3.72;;;1.20;;
56425;SDS011;42330;43.620;3.856;2022-08-04T11:26:08;13.32;;;1.67;;
56425;SDS011;42330;43.620;3.856;2022-08-04T11:31:25;3.78;;;1.02;;
56425;SDS011;42330;43.620;3.856;2022-08-04T11:34:00;4.32;;;1.15;;
56425;SDS011;42330;43.620;3.856;2022-08-04T11:36:48;3.10;;;1.20;;
56425;SDS011;42330;43.620;3.856;2022-08-04T11:42:17;2.45;;;1.00;;
56425;SDS011;42330;43.620;3.856;2022-08-04T11:45:14;4.93;;;1.13;;
56425;SDS011;42330;43.620;3.856;2022-08-04T11:47:46;3.30;;;1.10;;
56425;SDS011;42330;43.620;3.856;2022-08-04T11:50:43;6.38;;;1.10;;
56425;SDS011;42330;43.620;3.856;2022-08-04T11:53:15;2.45;;;1.00;;
56425;SDS011;42330;43.620;3.856;2022-08-04T11:55:45;3.28;;;1.00;;
56425;SDS011;42330;43.620;3.856;2022-08-04T11:58:14;2.55;;;1.00;;
56425;SDS011;42330;43.620;3.856;2022-08-04T12:00:52;5.78;;;1.20;;
56425;SDS011;42330;43.620;3.856;2022-08-04T12:06:22;5.40;;;1.20;;
56425;SDS011;42330;43.620;3.856;2022-08-04T12:09:06;11.43;;;1.58;;
56425;SDS011;42330;43.620;3.856;2022-08-04T12:17:06;6.53;;;1.30;;
56425;SDS011;42330;43.620;3.856;2022-08-04T12:19:38;6.82;;;1.60;;
56425;SDS011;42330;43.620;3.856;2022-08-04T12:22:13;15.38;;;1.80;;
56425;SDS011;42330;43.620;3.856;2022-08-04T12:24:51;5.45;;;1.50;;
56425;SDS011;42330;43.620;3.856;2022-08-04T12:27:23;3.23;;;1.40;;
56425;SDS011;42330;43.620;3.856;2022-08-04T12:29:53;2.30;;;1.20;;
56425;SDS011;42330;43.620;3.856;2022-08-04T12:35:02;4.57;;;1.30;;
56425;SDS011;42330;43.620;3.856;2022-08-04T12:37:50;7.28;;;1.25;;
56425;SDS011;42330;43.620;3.856;2022-08-04T12:40:30;2.88;;;1.25;;
56425;SDS011;42330;43.620;3.856;2022-08-04T12:43:14;4.68;;;1.67;;
56425;SDS011;42330;43.620;3.856;2022-08-04T12:45:43;6.38;;;1.60;;
56425;SDS011;42330;43.620;3.856;2022-08-04T12:48:13;4.45;;;1.50;;
56425;SDS011;42330;43.620;3.856;2022-08-04T12:50:39;4.22;;;1.10;;
56425;SDS011;42330;43.620;3.856;2022-08-04T12:53:14;4.15;;;1.35;;
56425;SDS011;42330;43.620;3.856;2022-08-04T12:55:46;8.45;;;1.40;;
56425;SDS011;42330;43.620;3.856;2022-08-04T12:58:17;5.90;;;1.35;;
56425;SDS011;42330;43.620;3.856;2022-08-04T13:00:49;4.90;;;1.30;;
56425;SDS011;42330;43.620;3.856;2022-08-04T13:03:18;2.60;;;1.15;;
56425;SDS011;42330;43.620;3.856;2022-08-04T13:05:47;4.60;;;1.20;;
56425;SDS011;42330;43.620;3.856;2022-08-04T13:08:19;6.68;;;1.10;;
56425;SDS011;42330;43.620;3.856;2022-08-04T13:10:46;7.50;;;1.27;;
56425;SDS011;42330;43.620;3.856;2022-08-04T13:13:16;5.60;;;1.45;;
56425;SDS011;42330;43.620;3.856;2022-08-04T13:18:25;7.20;;;1.40;;
56425;SDS011;42330;43.620;3.856;2022-08-04T13:20:52;4.93;;;1.30;;
56425;SDS011;42330;43.620;3.856;2022-08-04T13:23:18;3.15;;;1.00;;
56425;SDS011;42330;43.620;3.856;2022-08-04T13:25:45;2.25;;;0.88;;
56425;SDS011;42330;43.620;3.856;2022-08-04T13:33:16;3.25;;;0.90;;
56425;SDS011;42330;43.620;3.856;2022-08-04T13:35:44;4.22;;;1.00;;
56425;SDS011;42330;43.620;3.856;2022-08-04T13:38:12;5.10;;;1.10;;
56425;SDS011;42330;43.620;3.856;2022-08-04T13:40:40;2.75;;;0.93;;
56425;SDS011;42330;43.620;3.856;2022-08-04T13:43:08;2.72;;;0.75;;
56425;SDS011;42330;43.620;3.856;2022-08-04T13:45:37;6.22;;;1.00;;
56425;SDS011;42330;43.620;3.856;2022-08-04T13:48:05;3.00;;;0.80;;
56425;SDS011;42330;43.620;3.856;2022-08-04T13:50:34;3.33;;;0.98;;
56425;SDS011;42330;43.620;3.856;2022-08-04T13:53:02;3.85;;;1.10;;
56425;SDS011;42330;43.620;3.856;2022-08-04T13:55:29;4.47;;;1.00;;
56425;SDS011;42330;43.620;3.856;2022-08-04T13:58:09;2.40;;;0.70;;
56425;SDS011;42330;43.620;3.856;2022-08-04T14:00:50;6.38;;;1.10;;
56425;SDS011;42330;43.620;3.856;2022-08-04T14:03:28;5.15;;;1.00;;
56425;SDS011;42330;43.620;3.856;2022-08-04T14:06:08;4.75;;;0.90;;
56425;SDS011;42330;43.620;3.856;2022-08-04T14:09:28;1.77;;;0.85;;
56425;SDS011;42330;43.620;3.856;2022-08-04T14:11:39;4.53;;;0.90;;
56425;SDS011;42330;43.620;3.856;2022-08-04T14:14:26;4.53;;;0.85;;
56425;SDS011;42330;43.620;3.856;2022-08-04T14:17:02;2.45;;;0.80;;
56425;SDS011;42330;43.620;3.856;2022-08-04T14:19:46;6.43;;;0.90;;
56425;SDS011;42330;43.620;3.856;2022-08-04T14:24:57;2.15;;;0.80;;
56425;SDS011;42330;43.620;3.856;2022-08-04T14:27:24;1.58;;;0.80;;
56425;SDS011;42330;43.620;3.856;2022-08-04T14:29:53;1.38;;;0.70;;
56425;SDS011;42330;43.620;3.856;2022-08-04T14:32:18;5.13;;;0.90;;
56425;SDS011;42330;43.620;3.856;2022-08-04T14:34:44;3.65;;;0.80;;
56425;SDS011;42330;43.620;3.856;2022-08-04T14:37:11;3.80;;;0.90;;
56425;SDS011;42330;43.620;3.856;2022-08-04T14:39:40;1.98;;;0.70;;
56425;SDS011;42330;43.620;3.856;2022-08-04T14:42:08;1.92;;;0.90;;
56425;SDS011;42330;43.620;3.856;2022-08-04T14:47:39;4.85;;;0.80;;
56425;SDS011;42330;43.620;3.856;2022-08-04T14:50:07;3.72;;;0.80;;
56425;SDS011;42330;43.620;3.856;2022-08-04T14:52:34;4.55;;;1.00;;
56425;SDS011;42330;43.620;3.856;2022-08-04T14:55:19;2.15;;;0.88;;
56425;SDS011;42330;43.620;3.856;2022-08-04T14:57:47;3.63;;;0.70;;
56425;SDS011;42330;43.620;3.856;2022-08-04T15:00:25;3.63;;;0.90;;
56425;SDS011;42330;43.620;3.856;2022-08-04T15:02:53;2.83;;;0.80;;
56425;SDS011;42330;43.620;3.856;2022-08-04T15:05:24;3.22;;;0.90;;
56425;SDS011;42330;43.620;3.856;2022-08-04T15:07:50;2.97;;;0.70;;
56425;SDS011;42330;43.620;3.856;2022-08-04T15:10:18;1.67;;;0.75;;
56425;SDS011;42330;43.620;3.856;2022-08-04T15:12:44;5.13;;;0.80;;
56425;SDS011;42330;43.620;3.856;2022-08-04T15:15:11;5.13;;;1.05;;
56425;SDS011;42330;43.620;3.856;2022-08-04T15:17:36;2.95;;;0.90;;
56425;SDS011;42330;43.620;3.856;2022-08-04T15:20:03;2.17;;;0.80;;
56425;SDS011;42330;43.620;3.856;2022-08-04T15:22:31;4.68;;;0.98;;
56425;SDS011;42330;43.620;3.856;2022-08-04T15:24:56;6.78;;;1.10;;
56425;SDS011;42330;43.620;3.856;2022-08-04T15:27:26;3.78;;;0.93;;
56425;SDS011;42330;43.620;3.856;2022-08-04T15:29:59;4.88;;;0.90;;
56425;SDS011;42330;43.620;3.856;2022-08-04T15:32:31;2.13;;;1.00;;
56425;SDS011;42330;43.620;3.856;2022-08-04T15:35:05;2.05;;;1.00;;
56425;SDS011;42330;43.620;3.856;2022-08-04T15:40:22;2.53;;;1.02;;
56425;SDS011;42330;43.620;3.856;2022-08-04T15:45:53;1.65;;;1.00;;
56425;SDS011;42330;43.620;3.856;2022-08-04T15:48:24;2.67;;;0.90;;
56425;SDS011;42330;43.620;3.856;2022-08-04T15:53:26;8.35;;;1.10;;
56425;SDS011;42330;43.620;3.856;2022-08-04T15:55:53;2.50;;;1.10;;
56425;SDS011;42330;43.620;3.856;2022-08-04T15:58:20;1.77;;;1.10;;
56425;SDS011;42330;43.620;3.856;2022-08-04T16:05:59;2.90;;;1.27;;
56425;SDS011;42330;43.620;3.856;2022-08-04T16:08:56;4.20;;;1.13;;
56425;SDS011;42330;43.620;3.856;2022-08-04T16:16:49;2.30;;;1.00;;
56425;SDS011;42330;43.620;3.856;2022-08-04T16:22:02;2.63;;;1.10;;
56425;SDS011;42330;43.620;3.856;2022-08-04T16:26:59;2.63;;;1.35;;
56425;SDS011;42330;43.620;3.856;2022-08-04T16:29:31;3.72;;;1.10;;
56425;SDS011;42330;43.620;3.856;2022-08-04T16:34:41;2.67;;;1.15;;
56425;SDS011;42330;43.620;3.856;2022-08-04T16:37:12;3.40;;;1.25;;
56425;SDS011;42330;43.620;3.856;2022-08-04T16:39:39;3.00;;;1.00;;
56425;SDS011;42330;43.620;3.856;2022-08-04T16:44:58;2.03;;;1.15;;
56425;SDS011;42330;43.620;3.856;2022-08-04T16:50:11;3.38;;;1.40;;
56425;SDS011;42330;43.620;3.856;2022-08-04T16:52:46;2.60;;;1.30;;
56425;SDS011;42330;43.620;3.856;2022-08-04T16:55:16;3.53;;;1.20;;
56425;SDS011;42330;43.620;3.856;2022-08-04T16:57:47;3.72;;;1.40;;
56425;SDS011;42330;43.620;3.856;2022-08-04T17:00:14;3.50;;;1.33;;
56425;SDS011;42330;43.620;3.856;2022-08-04T17:02:41;5.03;;;1.50;;
56425;SDS011;42330;43.620;3.856;2022-08-04T17:05:20;4.25;;;1.40;;
56425;SDS011;42330;43.620;3.856;2022-08-04T17:07:48;2.80;;;1.40;;
56425;SDS011;42330;43.620;3.856;2022-08-04T17:10:18;5.38;;;1.40;;
56425;SDS011;42330;43.620;3.856;2022-08-04T17:12:44;3.78;;;1.27;;
56425;SDS011;42330;43.620;3.856;2022-08-04T17:15:21;3.85;;;1.40;;
56425;SDS011;42330;43.620;3.856;2022-08-04T17:17:47;4.63;;;1.40;;
56425;SDS011;42330;43.620;3.856;2022-08-04T17:20:13;4.68;;;1.40;;
56425;SDS011;42330;43.620;3.856;2022-08-04T17:22:39;3.53;;;1.38;;
56425;SDS011;42330;43.620;3.856;2022-08-04T17:25:05;3.60;;;1.48;;
56425;SDS011;42330;43.620;3.856;2022-08-04T17:27:31;3.30;;;1.20;;
56425;SDS011;42330;43.620;3.856;2022-08-04T17:29:57;3.78;;;1.38;;
56425;SDS011;42330;43.620;3.856;2022-08-04T17:32:23;5.28;;;1.23;;
56425;SDS011;42330;43.620;3.856;2022-08-04T17:34:50;4.25;;;1.30;;
56425;SDS011;42330;43.620;3.856;2022-08-04T17:37:21;5.28;;;1.42;;
56425;SDS011;42330;43.620;3.856;2022-08-04T17:39:49;5.20;;;1.70;;
56425;SDS011;42330;43.620;3.856;2022-08-04T17:42:27;2.67;;;1.25;;
56425;SDS011;42330;43.620;3.856;2022-08-04T17:45:05;4.30;;;1.35;;
56425;SDS011;42330;43.620;3.856;2022-08-04T17:47:47;6.22;;;1.50;;
56425;SDS011;42330;43.620;3.856;2022-08-04T17:50:26;3.22;;;1.33;;
56425;SDS011;42330;43.620;3.856;2022-08-04T17:52:58;4.13;;;1.48;;
56425;SDS011;42330;43.620;3.856;2022-08-04T17:55:39;5.93;;;1.38;;
56425;SDS011;42330;43.620;3.856;2022-08-04T18:00:39;5.90;;;1.40;;
56425;SDS011;42330;43.620;3.856;2022-08-04T18:03:05;2.95;;;1.42;;
56425;SDS011;42330;43.620;3.856;2022-08-04T18:05:31;3.97;;;1.50;;
56425;SDS011;42330;43.620;3.856;2022-08-04T18:08:00;4.57;;;1.70;;
56425;SDS011;42330;43.620;3.856;2022-08-04T18:10:37;4.63;;;1.50;;
56425;SDS011;42330;43.620;3.856;2022-08-04T18:13:05;5.93;;;1.58;;
56425;SDS011;42330;43.620;3.856;2022-08-04T18:15:32;3.53;;;1.50;;
56425;SDS011;42330;43.620;3.856;2022-08-04T18:17:58;5.00;;;1.52;;
56425;SDS011;42330;43.620;3.856;2022-08-04T18:20:24;2.60;;;1.40;;
56425;SDS011;42330;43.620;3.856;2022-08-04T18:22:51;2.85;;;1.27;;
56425;SDS011;42330;43.620;3.856;2022-08-04T18:25:17;4.00;;;1.50;;
56425;SDS011;42330;43.620;3.856;2022-08-04T18:27:54;4.95;;;1.40;;
56425;SDS011;42330;43.620;3.856;2022-08-04T18:30:24;6.55;;;1.70;;
56425;SDS011;42330;43.620;3.856;2022-08-04T18:32:52;4.05;;;1.80;;
56425;SDS011;42330;43.620;3.856;2022-08-04T18:35:19;5.00;;;1.48;;
56425;SDS011;42330;43.620;3.856;2022-08-04T18:37:45;2.65;;;1.50;;
56425;SDS011;42330;43.620;3.856;2022-08-04T18:40:11;4.57;;;1.70;;
56425;SDS011;42330;43.620;3.856;2022-08-04T18:42:37;5.97;;;1.85;;
56425;SDS011;42330;43.620;3.856;2022-08-04T18:45:03;6.70;;;1.75;;
56425;SDS011;42330;43.620;3.856;2022-08-04T18:47:29;3.30;;;1.30;;
56425;SDS011;42330;43.620;3.856;2022-08-04T18:49:55;4.28;;;1.60;;
56425;SDS011;42330;43.620;3.856;2022-08-04T18:52:22;23.92;;;2.33;;
56425;SDS011;42330;43.620;3.856;2022-08-04T18:54:48;3.92;;;1.40;;
56425;SDS011;42330;43.620;3.856;2022-08-04T18:57:17;4.40;;;1.30;;
56425;SDS011;42330;43.620;3.856;2022-08-04T18:59:48;3.25;;;1.60;;
56425;SDS011;42330;43.620;3.856;2022-08-04T19:02:14;3.67;;;1.50;;
56425;SDS011;42330;43.620;3.856;2022-08-04T19:04:41;4.35;;;1.70;;
56425;SDS011;42330;43.620;3.856;2022-08-04T19:07:07;5.10;;;1.40;;
56425;SDS011;42330;43.620;3.856;2022-08-04T19:09:33;2.75;;;1.50;;
56425;SDS011;42330;43.620;3.856;2022-08-04T19:11:59;16.35;;;2.28;;
56425;SDS011;42330;43.620;3.856;2022-08-04T19:14:25;141.60;;;6.03;;
56425;SDS011;42330;43.620;3.856;2022-08-04T19:16:50;19.75;;;2.35;;
56425;SDS011;42330;43.620;3.856;2022-08-04T19:19:16;4.50;;;1.65;;
56425;SDS011;42330;43.620;3.856;2022-08-04T19:21:44;3.95;;;1.60;;
56425;SDS011;42330;43.620;3.856;2022-08-04T19:24:10;6.03;;;1.70;;
56425;SDS011;42330;43.620;3.856;2022-08-04T19:26:36;4.63;;;1.40;;
56425;SDS011;42330;43.620;3.856;2022-08-04T19:29:03;5.05;;;1.80;;
56425;SDS011;42330;43.620;3.856;2022-08-04T19:31:29;5.18;;;1.88;;
56425;SDS011;42330;43.620;3.856;2022-08-04T19:33:54;5.72;;;1.65;;
56425;SDS011;42330;43.620;3.856;2022-08-04T19:36:21;4.95;;;1.60;;
56425;SDS011;42330;43.620;3.856;2022-08-04T19:38:48;5.30;;;1.98;;
56425;SDS011;42330;43.620;3.856;2022-08-04T19:41:14;3.03;;;2.05;;
56425;SDS011;42330;43.620;3.856;2022-08-04T19:43:40;3.33;;;1.90;;
56425;SDS011;42330;43.620;3.856;2022-08-04T19:46:06;4.78;;;1.90;;
56425;SDS011;42330;43.620;3.856;2022-08-04T19:48:32;8.70;;;1.80;;
56425;SDS011;42330;43.620;3.856;2022-08-04T19:50:58;5.95;;;1.80;;
56425;SDS011;42330;43.620;3.856;2022-08-04T19:53:24;4.13;;;1.95;;
56425;SDS011;42330;43.620;3.856;2022-08-04T19:55:49;3.92;;;1.80;;
56425;SDS011;42330;43.620;3.856;2022-08-04T19:58:15;3.90;;;1.90;;
56425;SDS011;42330;43.620;3.856;2022-08-04T20:00:41;5.47;;;2.00;;
56425;SDS011;42330;43.620;3.856;2022-08-04T20:03:07;4.68;;;2.30;;
56425;SDS011;42330;43.620;3.856;2022-08-04T20:05:34;5.95;;;2.17;;
56425;SDS011;42330;43.620;3.856;2022-08-04T20:07:59;3.78;;;2.40;;
56425;SDS011;42330;43.620;3.856;2022-08-04T20:10:25;5.32;;;2.30;;
56425;SDS011;42330;43.620;3.856;2022-08-04T20:12:51;3.70;;;2.03;;
56425;SDS011;42330;43.620;3.856;2022-08-04T20:15:16;4.75;;;2.00;;
56425;SDS011;42330;43.620;3.856;2022-08-04T20:17:42;7.35;;;2.35;;
56425;SDS011;42330;43.620;3.856;2022-08-04T20:20:08;5.22;;;2.55;;
56425;SDS011;42330;43.620;3.856;2022-08-04T20:22:35;5.03;;;2.30;;
56425;SDS011;42330;43.620;3.856;2022-08-04T20:25:00;6.38;;;2.40;;
56425;SDS011;42330;43.620;3.856;2022-08-04T20:27:26;4.93;;;2.13;;
56425;SDS011;42330;43.620;3.856;2022-08-04T20:29:52;3.50;;;2.20;;